sensor_id;sensor_type;location;lat;lon;timestamp;pressure;altitude;pressure_sealevel;temperature;humidity
43119;BME280;28729;49.838;8.650;2024-03-08T00:03:17;99824.91;;;4.79;72.36
43119;BME280;28729;49.838;8.650;2024-03-08T00:07:18;99817.78;;;4.71;72.98
43119;BME280;28729;49.838;8.650;2024-03-08T00:11:20;99817.97;;;4.63;74.29
43119;BME280;28729;49.838;8.650;2024-03-08T00:15:23;99816.09;;;4.57;73.79
43119;BME280;28729;49.838;8.650;2024-03-08T00:19:25;99808.13;;;4.49;74.34
43119;BME280;28729;49.838;8.650;2024-03-08T00:23:27;99821.34;;;4.45;74.17
43119;BME280;28729;49.838;8.650;2024-03-08T00:27:30;99808.53;;;4.39;74.29
43119;BME280;28729;49.838;8.650;2024-03-08T00:31:32;99806.25;;;4.29;75.28
43119;BME280;28729;49.838;8.650;2024-03-08T00:35:34;99805.59;;;4.27;74.94
43119;BME280;28729;49.838;8.650;2024-03-08T00:39:36;99802.22;;;4.19;75.25
43119;BME280;28729;49.838;8.650;2024-03-08T00:43:38;99803.47;;;4.16;75.17
43119;BME280;28729;49.838;8.650;2024-03-08T00:47:48;99793.00;;;4.13;75.27
43119;BME280;28729;49.838;8.650;2024-03-08T00:51:50;99778.94;;;4.09;75.63
43119;BME280;28729;49.838;8.650;2024-03-08T00:55:52;99782.72;;;4.08;75.16
43119;BME280;28729;49.838;8.650;2024-03-08T00:59:54;99774.56;;;4.02;75.42
43119;BME280;28729;49.838;8.650;2024-03-08T01:03:56;99773.06;;;3.99;75.43
43119;BME280;28729;49.838;8.650;2024-03-08T01:07:58;99763.63;;;3.95;75.41
43119;BME280;28729;49.838;8.650;2024-03-08T01:12:00;99769.91;;;3.89;76.19
43119;BME280;28729;49.838;8.650;2024-03-08T01:16:03;99767.41;;;3.87;76.03
43119;BME280;28729;49.838;8.650;2024-03-08T01:20:06;99759.00;;;3.82;76.27
43119;BME280;28729;49.838;8.650;2024-03-08T01:24:09;99749.09;;;3.75;76.90
43119;BME280;28729;49.838;8.650;2024-03-08T01:28:11;99754.13;;;3.71;76.75
43119;BME280;28729;49.838;8.650;2024-03-08T01:32:14;99739.25;;;3.67;77.13
43119;BME280;28729;49.838;8.650;2024-03-08T01:36:16;99735.88;;;3.65;77.38
43119;BME280;28729;49.838;8.650;2024-03-08T01:40:20;99736.53;;;3.60;77.81
43119;BME280;28729;49.838;8.650;2024-03-08T01:44:22;99724.75;;;3.53;79.13
43119;BME280;28729;49.838;8.650;2024-03-08T01:48:24;99715.34;;;3.49;78.85
43119;BME280;28729;49.838;8.650;2024-03-08T01:52:28;99723.28;;;3.44;79.05
43119;BME280;28729;49.838;8.650;2024-03-08T01:56:31;99718.66;;;3.38;79.35
43119;BME280;28729;49.838;8.650;2024-03-08T02:00:35;99715.91;;;3.31;80.13
43119;BME280;28729;49.838;8.650;2024-03-08T02:04:39;99716.50;;;3.27;80.64
43119;BME280;28729;49.838;8.650;2024-03-08T02:08:42;99711.69;;;3.22;81.06
43119;BME280;28729;49.838;8.650;2024-03-08T02:12:46;99701.22;;;3.19;81.30
43119;BME280;28729;49.838;8.650;2024-03-08T02:16:49;99698.06;;;3.15;81.15
43119;BME280;28729;49.838;8.650;2024-03-08T02:20:53;99699.31;;;3.13;82.33
43119;BME280;28729;49.838;8.650;2024-03-08T02:24:56;99699.72;;;3.10;82.63
43119;BME280;28729;49.838;8.650;2024-03-08T02:28:59;99704.09;;;3.04;83.71
43119;BME280;28729;49.838;8.650;2024-03-08T02:33:01;99695.94;;;3.04;83.25
43119;BME280;28729;49.838;8.650;2024-03-08T02:37:03;99683.34;;;3.03;83.06
43119;BME280;28729;49.838;8.650;2024-03-08T02:41:05;99682.09;;;2.99;82.51
43119;BME280;28729;49.838;8.650;2024-03-08T02:45:07;99671.81;;;2.94;83.74
43119;BME280;28729;49.838;8.650;2024-03-08T02:49:14;99670.34;;;2.92;83.33
43119;BME280;28729;49.838;8.650;2024-03-08T02:53:15;99677.22;;;2.88;83.99
43119;BME280;28729;49.838;8.650;2024-03-08T02:57:18;99689.56;;;2.84;84.36
43119;BME280;28729;49.838;8.650;2024-03-08T03:01:20;99698.31;;;2.79;83.87
43119;BME280;28729;49.838;8.650;2024-03-08T03:05:24;99694.75;;;2.72;84.85
43119;BME280;28729;49.838;8.650;2024-03-08T03:09:26;99699.53;;;2.70;84.86
43119;BME280;28729;49.838;8.650;2024-03-08T03:13:29;99699.50;;;2.63;84.89
43119;BME280;28729;49.838;8.650;2024-03-08T03:17:31;99703.03;;;2.57;86.30
43119;BME280;28729;49.838;8.650;2024-03-08T03:21:33;99694.22;;;2.55;85.87
43119;BME280;28729;49.838;8.650;2024-03-08T03:25:37;99694.41;;;2.47;86.30
43119;BME280;28729;49.838;8.650;2024-03-08T03:29:43;99687.00;;;2.41;86.39
43119;BME280;28729;49.838;8.650;2024-03-08T03:33:48;99701.00;;;2.38;86.02
43119;BME280;28729;49.838;8.650;2024-03-08T03:37:53;99695.09;;;2.27;86.44
43119;BME280;28729;49.838;8.650;2024-03-08T03:42:09;99681.66;;;2.19;87.14
43119;BME280;28729;49.838;8.650;2024-03-08T03:46:11;99684.59;;;2.18;87.02
43119;BME280;28729;49.838;8.650;2024-03-08T03:50:13;99684.53;;;2.11;87.82
43119;BME280;28729;49.838;8.650;2024-03-08T03:54:15;99689.06;;;2.04;88.39
43119;BME280;28729;49.838;8.650;2024-03-08T03:58:17;99681.53;;;1.99;87.56
43119;BME280;28729;49.838;8.650;2024-03-08T04:02:25;99677.72;;;1.94;88.79
43119;BME280;28729;49.838;8.650;2024-03-08T04:06:28;99682.63;;;1.83;89.08
43119;BME280;28729;49.838;8.650;2024-03-08T04:10:30;99680.06;;;1.75;89.49
43119;BME280;28729;49.838;8.650;2024-03-08T04:14:32;99677.28;;;1.69;89.71
43119;BME280;28729;49.838;8.650;2024-03-08T04:18:34;99679.94;;;1.62;91.04
43119;BME280;28729;49.838;8.650;2024-03-08T04:22:39;99684.94;;;1.58;91.46
43119;BME280;28729;49.838;8.650;2024-03-08T04:26:41;99683.44;;;1.56;92.22
43119;BME280;28729;49.838;8.650;2024-03-08T04:30:43;99670.44;;;1.51;93.10
43119;BME280;28729;49.838;8.650;2024-03-08T04:34:45;99671.50;;;1.50;92.66
43119;BME280;28729;49.838;8.650;2024-03-08T04:38:47;99669.56;;;1.44;92.96
43119;BME280;28729;49.838;8.650;2024-03-08T04:42:49;99666.38;;;1.41;92.88
43119;BME280;28729;49.838;8.650;2024-03-08T04:46:52;99662.38;;;1.36;93.70
43119;BME280;28729;49.838;8.650;2024-03-08T04:50:54;99661.75;;;1.34;94.48
43119;BME280;28729;49.838;8.650;2024-03-08T04:54:57;99659.59;;;1.30;95.10
43119;BME280;28729;49.838;8.650;2024-03-08T04:58:59;99654.09;;;1.23;95.60
43119;BME280;28729;49.838;8.650;2024-03-08T05:03:01;99656.75;;;1.17;96.21
43119;BME280;28729;49.838;8.650;2024-03-08T05:07:03;99652.94;;;1.11;96.84
43119;BME280;28729;49.838;8.650;2024-03-08T05:11:05;99648.28;;;1.05;98.28
43119;BME280;28729;49.838;8.650;2024-03-08T05:15:09;99640.91;;;0.99;99.22
43119;BME280;28729;49.838;8.650;2024-03-08T05:19:11;99646.72;;;0.96;99.68
43119;BME280;28729;49.838;8.650;2024-03-08T05:23:12;99656.91;;;0.94;99.94
43119;BME280;28729;49.838;8.650;2024-03-08T05:27:15;99646.81;;;0.87;100.00
43119;BME280;28729;49.838;8.650;2024-03-08T05:31:20;99644.66;;;0.83;100.00
43119;BME280;28729;49.838;8.650;2024-03-08T05:35:24;99648.16;;;0.77;100.00
43119;BME280;28729;49.838;8.650;2024-03-08T05:39:26;99647.63;;;0.66;100.00
43119;BME280;28729;49.838;8.650;2024-03-08T05:43:28;99642.97;;;0.60;100.00
43119;BME280;28729;49.838;8.650;2024-03-08T05:47:29;99635.38;;;0.56;100.00
43119;BME280;28729;49.838;8.650;2024-03-08T05:51:37;99630.34;;;0.53;100.00
43119;BME280;28729;49.838;8.650;2024-03-08T05:55:39;99626.72;;;0.45;100.00
43119;BME280;28729;49.838;8.650;2024-03-08T05:59:42;99636.06;;;0.43;100.00
43119;BME280;28729;49.838;8.650;2024-03-08T06:03:44;99629.13;;;0.40;100.00
43119;BME280;28729;49.838;8.650;2024-03-08T06:07:50;99631.19;;;0.38;100.00
43119;BME280;28729;49.838;8.650;2024-03-08T06:11:54;99637.28;;;0.40;100.00
43119;BME280;28729;49.838;8.650;2024-03-08T06:15:57;99631.00;;;0.40;100.00
43119;BME280;28729;49.838;8.650;2024-03-08T06:19:59;99623.72;;;0.40;100.00
43119;BME280;28729;49.838;8.650;2024-03-08T06:24:01;99627.19;;;0.34;100.00
43119;BME280;28729;49.838;8.650;2024-03-08T06:28:03;99631.19;;;0.38;100.00
43119;BME280;28729;49.838;8.650;2024-03-08T06:32:05;99631.00;;;0.40;100.00
43119;BME280;28729;49.838;8.650;2024-03-08T06:36:09;99627.09;;;0.42;100.00
43119;BME280;28729;49.838;8.650;2024-03-08T06:40:11;99623.34;;;0.43;100.00
43119;BME280;28729;49.838;8.650;2024-03-08T06:44:16;99633.44;;;0.50;100.00
43119;BME280;28729;49.838;8.650;2024-03-08T06:48:18;99622.41;;;0.51;100.00
43119;BME280;28729;49.838;8.650;2024-03-08T06:52:20;99622.47;;;0.58;100.00
43119;BME280;28729;49.838;8.650;2024-03-08T06:56:23;99621.72;;;0.64;100.00
43119;BME280;28729;49.838;8.650;2024-03-08T07:00:26;99618.91;;;0.72;100.00
43119;BME280;28729;49.838;8.650;2024-03-08T07:04:30;99617.03;;;0.73;100.00
43119;BME280;28729;49.838;8.650;2024-03-08T07:08:33;99608.56;;;0.82;100.00
43119;BME280;28729;49.838;8.650;2024-03-08T07:12:34;99604.97;;;0.97;100.00
43119;BME280;28729;49.838;8.650;2024-03-08T07:16:38;99604.66;;;1.06;100.00
43119;BME280;28729;49.838;8.650;2024-03-08T07:20:44;99607.13;;;1.23;100.00
43119;BME280;28729;49.838;8.650;2024-03-08T07:24:46;99602.91;;;1.42;100.00
43119;BME280;28729;49.838;8.650;2024-03-08T07:29:19;99588.00;;;1.59;100.00
43119;BME280;28729;49.838;8.650;2024-03-08T07:33:21;99587.75;;;1.82;100.00
43119;BME280;28729;49.838;8.650;2024-03-08T07:37:24;99590.84;;;2.07;100.00
43119;BME280;28729;49.838;8.650;2024-03-08T07:41:27;99589.94;;;2.35;100.00
43119;BME280;28729;49.838;8.650;2024-03-08T07:45:31;99587.72;;;2.58;100.00
43119;BME280;28729;49.838;8.650;2024-03-08T07:49:33;99579.03;;;2.83;100.00
43119;BME280;28729;49.838;8.650;2024-03-08T07:53:36;99582.44;;;3.11;100.00
43119;BME280;28729;49.838;8.650;2024-03-08T07:57:38;99584.78;;;3.34;99.18
43119;BME280;28729;49.838;8.650;2024-03-08T08:01:39;99578.25;;;3.69;97.74
43119;BME280;28729;49.838;8.650;2024-03-08T08:05:42;99570.47;;;3.99;95.72
43119;BME280;28729;49.838;8.650;2024-03-08T08:09:43;99556.78;;;4.19;93.39
43119;BME280;28729;49.838;8.650;2024-03-08T08:13:45;99551.66;;;4.42;92.87
43119;BME280;28729;49.838;8.650;2024-03-08T08:17:47;99550.03;;;4.73;91.23
43119;BME280;28729;49.838;8.650;2024-03-08T08:21:49;99538.38;;;4.97;87.85
43119;BME280;28729;49.838;8.650;2024-03-08T08:25:51;99537.81;;;5.14;86.49
43119;BME280;28729;49.838;8.650;2024-03-08T08:29:53;99529.09;;;5.30;85.30
43119;BME280;28729;49.838;8.650;2024-03-08T08:33:55;99525.78;;;5.46;83.80
43119;BME280;28729;49.838;8.650;2024-03-08T08:37:59;99512.13;;;5.71;82.16
43119;BME280;28729;49.838;8.650;2024-03-08T08:42:01;99509.81;;;5.93;80.84
43119;BME280;28729;49.838;8.650;2024-03-08T08:46:05;99513.38;;;6.12;78.15
43119;BME280;28729;49.838;8.650;2024-03-08T08:50:07;99506.84;;;6.32;78.25
43119;BME280;28729;49.838;8.650;2024-03-08T08:54:09;99498.22;;;6.47;76.07
43119;BME280;28729;49.838;8.650;2024-03-08T08:58:14;99484.50;;;6.65;76.18
43119;BME280;28729;49.838;8.650;2024-03-08T09:02:16;99496.97;;;6.91;75.38
43119;BME280;28729;49.838;8.650;2024-03-08T09:06:19;99475.22;;;7.08;73.36
43119;BME280;28729;49.838;8.650;2024-03-08T09:10:21;99474.53;;;7.24;73.10
43119;BME280;28729;49.838;8.650;2024-03-08T09:14:23;99484.53;;;7.30;70.82
43119;BME280;28729;49.838;8.650;2024-03-08T09:18:27;99471.69;;;7.43;70.11
43119;BME280;28729;49.838;8.650;2024-03-08T09:22:29;99469.19;;;7.53;68.36
43119;BME280;28729;49.838;8.650;2024-03-08T09:26:31;99461.53;;;7.67;68.69
43119;BME280;28729;49.838;8.650;2024-03-08T09:30:34;99449.13;;;7.76;67.49
43119;BME280;28729;49.838;8.650;2024-03-08T09:34:37;99449.13;;;7.88;66.54
43119;BME280;28729;49.838;8.650;2024-03-08T09:38:40;99431.69;;;7.94;65.36
43119;BME280;28729;49.838;8.650;2024-03-08T09:42:48;99430.94;;;8.10;65.77
43119;BME280;28729;49.838;8.650;2024-03-08T09:46:50;99420.31;;;8.14;64.01
43119;BME280;28729;49.838;8.650;2024-03-08T09:50:55;99417.63;;;8.31;64.36
43119;BME280;28729;49.838;8.650;2024-03-08T09:54:58;99399.47;;;8.41;63.29
43119;BME280;28729;49.838;8.650;2024-03-08T09:58:59;99411.66;;;8.62;63.72
43119;BME280;28729;49.838;8.650;2024-03-08T10:03:07;99405.09;;;8.63;62.30
43119;BME280;28729;49.838;8.650;2024-03-08T10:07:13;99396.88;;;8.80;62.25
43119;BME280;28729;49.838;8.650;2024-03-08T10:11:15;99393.22;;;8.92;62.32
43119;BME280;28729;49.838;8.650;2024-03-08T10:15:18;99386.72;;;8.98;61.17
43119;BME280;28729;49.838;8.650;2024-03-08T10:19:21;99386.91;;;9.08;60.86
43119;BME280;28729;49.838;8.650;2024-03-08T10:23:27;99378.88;;;9.23;61.03
43119;BME280;28729;49.838;8.650;2024-03-08T10:27:29;99364.78;;;9.36;60.11
43119;BME280;28729;49.838;8.650;2024-03-08T10:31:33;99351.88;;;9.37;59.42
43119;BME280;28729;49.838;8.650;2024-03-08T10:35:35;99349.97;;;9.59;60.13
43119;BME280;28729;49.838;8.650;2024-03-08T10:39:37;99341.91;;;9.75;59.69
43119;BME280;28729;49.838;8.650;2024-03-08T10:44:09;99330.66;;;9.98;58.62
43119;BME280;28729;49.838;8.650;2024-03-08T10:48:29;99329.38;;;10.06;57.46
43119;BME280;28729;49.838;8.650;2024-03-08T10:52:40;99326.81;;;9.99;57.19
43119;BME280;28729;49.838;8.650;2024-03-08T10:56:42;99320.84;;;10.08;57.46
43119;BME280;28729;49.838;8.650;2024-03-08T11:00:45;99323.75;;;10.23;56.52
43119;BME280;28729;49.838;8.650;2024-03-08T11:04:50;99320.63;;;10.36;55.85
43119;BME280;28729;49.838;8.650;2024-03-08T11:08:52;99323.53;;;10.52;56.25
43119;BME280;28729;49.838;8.650;2024-03-08T11:12:57;99321.66;;;10.57;54.66
43119;BME280;28729;49.838;8.650;2024-03-08T11:17:00;99310.41;;;10.64;54.31
43119;BME280;28729;49.838;8.650;2024-03-08T11:21:09;99316.31;;;10.78;54.63
43119;BME280;28729;49.838;8.650;2024-03-08T11:25:37;99308.91;;;10.83;53.83
43119;BME280;28729;49.838;8.650;2024-03-08T11:29:42;99300.66;;;10.88;53.44
43119;BME280;28729;49.838;8.650;2024-03-08T11:33:46;99299.66;;;11.00;52.96
43119;BME280;28729;49.838;8.650;2024-03-08T11:37:50;99293.41;;;11.14;52.88
43119;BME280;28729;49.838;8.650;2024-03-08T11:41:53;99293.50;;;11.30;52.38
43119;BME280;28729;49.838;8.650;2024-03-08T11:46:07;99296.00;;;11.31;52.02
43119;BME280;28729;49.838;8.650;2024-03-08T11:50:13;99291.06;;;11.38;51.35
43119;BME280;28729;49.838;8.650;2024-03-08T11:54:15;99281.78;;;11.55;51.23
43119;BME280;28729;49.838;8.650;2024-03-08T11:58:25;99279.09;;;11.80;50.78
43119;BME280;28729;49.838;8.650;2024-03-08T12:02:30;99265.16;;;12.28;49.57
43119;BME280;28729;49.838;8.650;2024-03-08T12:11:19;99266.56;;;13.82;49.34
43119;BME280;28729;49.838;8.650;2024-03-08T12:15:28;99240.09;;;14.10;44.89
43119;BME280;28729;49.838;8.650;2024-03-08T12:19:30;99239.28;;;14.44;44.92
43119;BME280;28729;49.838;8.650;2024-03-08T12:23:31;99233.56;;;14.70;44.32
43119;BME280;28729;49.838;8.650;2024-03-08T12:27:36;99224.38;;;14.74;43.74
43119;BME280;28729;49.838;8.650;2024-03-08T12:31:39;99228.16;;;14.84;43.10
43119;BME280;28729;49.838;8.650;2024-03-08T12:35:53;99231.81;;;15.32;42.59
43119;BME280;28729;49.838;8.650;2024-03-08T12:39:57;99208.97;;;15.83;42.72
43119;BME280;28729;49.838;8.650;2024-03-08T12:44:00;99201.56;;;15.98;40.72
43119;BME280;28729;49.838;8.650;2024-03-08T12:48:02;99202.59;;;16.53;41.01
43119;BME280;28729;49.838;8.650;2024-03-08T12:52:11;99194.84;;;16.69;39.77
43119;BME280;28729;49.838;8.650;2024-03-08T12:56:20;99181.00;;;17.24;39.09
43119;BME280;28729;49.838;8.650;2024-03-08T13:00:50;99175.63;;;17.28;38.60
43119;BME280;28729;49.838;8.650;2024-03-08T13:05:00;99167.28;;;17.42;37.83
43119;BME280;28729;49.838;8.650;2024-03-08T13:09:21;99162.09;;;17.49;37.47
43119;BME280;28729;49.838;8.650;2024-03-08T13:13:24;99163.59;;;17.33;37.75
43119;BME280;28729;49.838;8.650;2024-03-08T13:17:44;99153.28;;;17.33;37.48
43119;BME280;28729;49.838;8.650;2024-03-08T13:21:50;99150.72;;;16.30;39.07
43119;BME280;28729;49.838;8.650;2024-03-08T13:25:55;99132.91;;;15.17;40.00
43119;BME280;28729;49.838;8.650;2024-03-08T13:29:59;99129.59;;;14.38;41.92
43119;BME280;28729;49.838;8.650;2024-03-08T13:34:01;99130.66;;;14.13;42.58
43119;BME280;28729;49.838;8.650;2024-03-08T13:38:03;99125.13;;;14.13;42.53
43119;BME280;28729;49.838;8.650;2024-03-08T13:42:10;99127.25;;;13.87;42.69
43119;BME280;28729;49.838;8.650;2024-03-08T13:46:21;99112.28;;;13.88;43.32
43119;BME280;28729;49.838;8.650;2024-03-08T13:50:23;99115.06;;;13.83;42.88
43119;BME280;28729;49.838;8.650;2024-03-08T13:54:29;99096.31;;;13.75;43.41
43119;BME280;28729;49.838;8.650;2024-03-08T13:58:33;99094.97;;;13.28;43.56
43119;BME280;28729;49.838;8.650;2024-03-08T14:02:37;99090.31;;;13.13;44.57
43119;BME280;28729;49.838;8.650;2024-03-08T14:06:41;99092.25;;;13.07;44.88
43119;BME280;28729;49.838;8.650;2024-03-08T14:10:45;99062.50;;;12.89;45.07
43119;BME280;28729;49.838;8.650;2024-03-08T14:14:49;99055.34;;;12.72;45.79
43119;BME280;28729;49.838;8.650;2024-03-08T14:18:51;99047.63;;;12.74;45.90
43119;BME280;28729;49.838;8.650;2024-03-08T14:22:59;99044.28;;;12.72;46.12
43119;BME280;28729;49.838;8.650;2024-03-08T14:27:01;99040.13;;;12.80;46.18
43119;BME280;28729;49.838;8.650;2024-03-08T14:31:09;99024.94;;;12.77;46.25
43119;BME280;28729;49.838;8.650;2024-03-08T14:35:14;99014.38;;;12.85;46.51
43119;BME280;28729;49.838;8.650;2024-03-08T14:39:16;99017.69;;;12.87;47.07
43119;BME280;28729;49.838;8.650;2024-03-08T14:43:23;99009.09;;;12.93;46.95
43119;BME280;28729;49.838;8.650;2024-03-08T14:47:26;99008.78;;;13.00;46.44
43119;BME280;28729;49.838;8.650;2024-03-08T14:51:27;99009.03;;;13.09;46.48
43119;BME280;28729;49.838;8.650;2024-03-08T14:55:29;98992.91;;;13.21;45.50
43119;BME280;28729;49.838;8.650;2024-03-08T14:59:32;98982.06;;;13.25;45.62
43119;BME280;28729;49.838;8.650;2024-03-08T15:03:36;98990.28;;;13.40;45.61
43119;BME280;28729;49.838;8.650;2024-03-08T15:07:39;98975.19;;;13.56;45.78
43119;BME280;28729;49.838;8.650;2024-03-08T15:11:41;98976.25;;;13.65;45.46
43119;BME280;28729;49.838;8.650;2024-03-08T15:15:44;98977.00;;;13.71;44.95
43119;BME280;28729;49.838;8.650;2024-03-08T15:19:53;98962.91;;;13.67;44.55
43119;BME280;28729;49.838;8.650;2024-03-08T15:23:56;98963.00;;;13.62;44.26
43119;BME280;28729;49.838;8.650;2024-03-08T15:27:58;98964.31;;;13.65;44.09
43119;BME280;28729;49.838;8.650;2024-03-08T15:32:00;98957.47;;;13.62;44.58
43119;BME280;28729;49.838;8.650;2024-03-08T15:36:02;98962.03;;;13.43;44.52
43119;BME280;28729;49.838;8.650;2024-03-08T15:40:14;98957.78;;;13.16;44.20
43119;BME280;28729;49.838;8.650;2024-03-08T15:44:24;98942.34;;;13.10;44.12
43119;BME280;28729;49.838;8.650;2024-03-08T15:48:33;98940.22;;;12.97;44.25
43119;BME280;28729;49.838;8.650;2024-03-08T15:52:36;98942.25;;;12.81;44.29
43119;BME280;28729;49.838;8.650;2024-03-08T15:56:45;98936.25;;;12.69;44.26
43119;BME280;28729;49.838;8.650;2024-03-08T16:00:48;98928.81;;;12.64;44.44
43119;BME280;28729;49.838;8.650;2024-03-08T16:04:52;98933.25;;;12.55;44.81
43119;BME280;28729;49.838;8.650;2024-03-08T16:08:55;98921.19;;;12.41;44.99
43119;BME280;28729;49.838;8.650;2024-03-08T16:12:57;98930.34;;;12.31;45.16
43119;BME280;28729;49.838;8.650;2024-03-08T16:16:59;98924.34;;;12.14;45.15
43119;BME280;28729;49.838;8.650;2024-03-08T16:21:03;98918.03;;;12.03;45.35
43119;BME280;28729;49.838;8.650;2024-03-08T16:25:06;98909.19;;;12.01;45.86
43119;BME280;28729;49.838;8.650;2024-03-08T16:29:15;98909.75;;;11.98;45.77
43119;BME280;28729;49.838;8.650;2024-03-08T16:33:21;98902.59;;;11.86;45.90
43119;BME280;28729;49.838;8.650;2024-03-08T16:37:24;98899.84;;;11.76;46.01
43119;BME280;28729;49.838;8.650;2024-03-08T16:41:28;98888.84;;;11.61;46.17
43119;BME280;28729;49.838;8.650;2024-03-08T16:45:31;98896.31;;;11.55;46.76
43119;BME280;28729;49.838;8.650;2024-03-08T16:49:33;98890.81;;;11.45;46.65
43119;BME280;28729;49.838;8.650;2024-03-08T16:53:35;98891.63;;;11.35;46.89
43119;BME280;28729;49.838;8.650;2024-03-08T16:57:45;98885.06;;;11.16;47.03
43119;BME280;28729;49.838;8.650;2024-03-08T17:01:46;98875.41;;;10.98;46.93
43119;BME280;28729;49.838;8.650;2024-03-08T17:05:49;98880.63;;;10.74;47.51
43119;BME280;28729;49.838;8.650;2024-03-08T17:09:57;98877.25;;;10.52;47.84
43119;BME280;28729;49.838;8.650;2024-03-08T17:13:59;98868.13;;;10.31;48.00
43119;BME280;28729;49.838;8.650;2024-03-08T17:18:02;98868.59;;;10.12;48.17
43119;BME280;28729;49.838;8.650;2024-03-08T17:22:09;98860.78;;;9.89;48.59
43119;BME280;28729;49.838;8.650;2024-03-08T17:26:11;98854.63;;;9.61;49.40
43119;BME280;28729;49.838;8.650;2024-03-08T17:30:14;98858.88;;;9.42;49.60
43119;BME280;28729;49.838;8.650;2024-03-08T17:34:21;98866.47;;;9.24;49.84
43119;BME280;28729;49.838;8.650;2024-03-08T17:38:23;98869.91;;;9.04;50.63
43119;BME280;28729;49.838;8.650;2024-03-08T17:42:26;98863.19;;;8.90;50.88
43119;BME280;28729;49.838;8.650;2024-03-08T17:46:29;98873.25;;;8.79;51.15
43119;BME280;28729;49.838;8.650;2024-03-08T17:50:31;98863.53;;;8.66;51.81
43119;BME280;28729;49.838;8.650;2024-03-08T17:54:32;98860.75;;;8.61;52.02
43119;BME280;28729;49.838;8.650;2024-03-08T17:58:36;98861.78;;;8.55;51.98
43119;BME280;28729;49.838;8.650;2024-03-08T18:02:39;98859.81;;;8.51;52.33
43119;BME280;28729;49.838;8.650;2024-03-08T18:06:42;98860.28;;;8.42;52.36
43119;BME280;28729;49.838;8.650;2024-03-08T18:10:43;98857.16;;;8.34;52.51
43119;BME280;28729;49.838;8.650;2024-03-08T18:14:45;98865.59;;;8.27;52.72
43119;BME280;28729;49.838;8.650;2024-03-08T18:18:49;98855.13;;;8.24;52.64
43119;BME280;28729;49.838;8.650;2024-03-08T18:22:51;98860.50;;;8.14;53.08
43119;BME280;28729;49.838;8.650;2024-03-08T18:26:53;98848.75;;;7.96;53.19
43119;BME280;28729;49.838;8.650;2024-03-08T18:30:55;98851.13;;;7.88;53.00
43119;BME280;28729;49.838;8.650;2024-03-08T18:34:57;98836.84;;;7.86;53.32
43119;BME280;28729;49.838;8.650;2024-03-08T18:38:59;98833.72;;;7.77;53.28
43119;BME280;28729;49.838;8.650;2024-03-08T18:43:02;98842.41;;;7.69;53.79
43119;BME280;28729;49.838;8.650;2024-03-08T18:47:03;98828.88;;;7.62;53.79
43119;BME280;28729;49.838;8.650;2024-03-08T18:51:05;98823.31;;;7.57;54.39
43119;BME280;28729;49.838;8.650;2024-03-08T18:55:08;98819.94;;;7.50;54.56
43119;BME280;28729;49.838;8.650;2024-03-08T18:59:26;98813.88;;;7.48;54.55
43119;BME280;28729;49.838;8.650;2024-03-08T19:03:29;98813.56;;;7.44;54.70
43119;BME280;28729;49.838;8.650;2024-03-08T19:07:31;98809.75;;;7.45;55.24
43119;BME280;28729;49.838;8.650;2024-03-08T19:11:36;98807.50;;;7.42;54.98
43119;BME280;28729;49.838;8.650;2024-03-08T19:15:38;98802.81;;;7.38;55.67
43119;BME280;28729;49.838;8.650;2024-03-08T19:19:40;98810.13;;;7.32;55.65
43119;BME280;28729;49.838;8.650;2024-03-08T19:23:42;98804.88;;;7.30;56.43
43119;BME280;28729;49.838;8.650;2024-03-08T19:27:46;98807.03;;;7.28;56.37
43119;BME280;28729;49.838;8.650;2024-03-08T19:31:48;98805.56;;;7.21;56.78
43119;BME280;28729;49.838;8.650;2024-03-08T19:35:51;98805.81;;;7.19;57.02
43119;BME280;28729;49.838;8.650;2024-03-08T19:39:53;98799.78;;;7.17;57.03
43119;BME280;28729;49.838;8.650;2024-03-08T19:43:55;98798.69;;;7.18;57.41
43119;BME280;28729;49.838;8.650;2024-03-08T19:47:58;98795.72;;;7.20;57.94
43119;BME280;28729;49.838;8.650;2024-03-08T19:52:01;98808.03;;;7.22;58.32
43119;BME280;28729;49.838;8.650;2024-03-08T19:56:06;98799.81;;;7.22;58.45
43119;BME280;28729;49.838;8.650;2024-03-08T20:00:10;98803.66;;;7.21;59.06
43119;BME280;28729;49.838;8.650;2024-03-08T20:04:16;98803.47;;;7.28;59.32
43119;BME280;28729;49.838;8.650;2024-03-08T20:08:18;98815.34;;;7.34;58.98
43119;BME280;28729;49.838;8.650;2024-03-08T20:12:22;98816.50;;;7.38;58.66
43119;BME280;28729;49.838;8.650;2024-03-08T20:16:24;98817.25;;;7.33;58.81
43119;BME280;28729;49.838;8.650;2024-03-08T20:20:26;98828.44;;;7.31;58.83
43119;BME280;28729;49.838;8.650;2024-03-08T20:24:28;98823.56;;;7.17;59.51
43119;BME280;28729;49.838;8.650;2024-03-08T20:28:30;98825.84;;;7.03;59.95
43119;BME280;28729;49.838;8.650;2024-03-08T20:32:34;98826.78;;;6.92;60.22
43119;BME280;28729;49.838;8.650;2024-03-08T20:36:36;98832.00;;;6.76;60.82
43119;BME280;28729;49.838;8.650;2024-03-08T20:40:38;98834.00;;;6.64;60.82
43119;BME280;28729;49.838;8.650;2024-03-08T20:44:41;98833.25;;;6.52;61.86
43119;BME280;28729;49.838;8.650;2024-03-08T20:48:43;98826.28;;;6.44;62.20
43119;BME280;28729;49.838;8.650;2024-03-08T20:52:47;98822.00;;;6.36;62.16
43119;BME280;28729;49.838;8.650;2024-03-08T20:56:51;98821.50;;;6.23;63.30
43119;BME280;28729;49.838;8.650;2024-03-08T21:00:53;98805.66;;;6.08;63.89
43119;BME280;28729;49.838;8.650;2024-03-08T21:04:57;98810.69;;;5.99;64.64
43119;BME280;28729;49.838;8.650;2024-03-08T21:09:00;98801.88;;;5.97;64.86
43119;BME280;28729;49.838;8.650;2024-03-08T21:13:02;98793.34;;;5.93;66.08
43119;BME280;28729;49.838;8.650;2024-03-08T21:17:04;98780.34;;;6.01;66.46
43119;BME280;28729;49.838;8.650;2024-03-08T21:21:07;98784.84;;;6.07;66.92
43119;BME280;28729;49.838;8.650;2024-03-08T21:25:10;98781.13;;;6.13;67.85
43119;BME280;28729;49.838;8.650;2024-03-08T21:29:12;98782.63;;;6.21;68.49
43119;BME280;28729;49.838;8.650;2024-03-08T21:33:14;98781.63;;;6.27;70.01
43119;BME280;28729;49.838;8.650;2024-03-08T21:37:16;98792.19;;;6.35;68.73
43119;BME280;28729;49.838;8.650;2024-03-08T21:41:20;98806.69;;;6.35;69.17
43119;BME280;28729;49.838;8.650;2024-03-08T21:45:22;98803.44;;;6.38;69.76
43119;BME280;28729;49.838;8.650;2024-03-08T21:49:28;98815.59;;;6.43;68.84